Time;durP1;ratioP1;P1;durP2;ratioP2;P2;SDS_P1;SDS_P2;PMS_P1;PMS_P2;Temp;Humidity;BMP_temperature;BMP_pressure;BME280_temperature;BME280_humidity;BME280_pressure;Samples;Min_cycle;Max_cycle;Signal;HPM_P1;HPM_P2
2022/12/06 00:00:52;;;;;;;;;;;;;;;-6.93;80.91;101582.25;4995184;28;19918;-65
2022/12/06 00:03:17;;;;;;;;;;;;;;;-6.94;80.99;101571.88;4995205;28;19914;-65
2022/12/06 00:05:42;;;;;;;;;;;;;;;-6.90;81.74;101565.63;4995186;28;20370;-65
2022/12/06 00:08:08;;;;;;;;;;;;;;;-6.90;81.61;101566.47;4993450;28;20266;-65
2022/12/06 00:10:35;;;;;;;;;;;;;;;-6.91;81.50;101562.19;4994136;28;22365;-65
2022/12/06 00:13:01;;;;;;;;;;;;;;;-6.89;81.43;101562.97;4994986;28;19996;-66
2022/12/06 00:15:26;;;;;;;;;;;;;;;-6.87;82.42;101561.16;4993779;28;19937;-65
2022/12/06 00:17:51;;;;;;;;;;;;;;;-6.84;81.86;101566.25;4995203;28;19926;-67
2022/12/06 00:20:17;;;;;;;;;;;;;;;-6.78;82.54;101566.94;4995193;28;19960;-63
2022/12/06 00:22:43;;;;;;;;;;;;;;;-6.78;81.60;101567.78;4995244;28;19914;-65
2022/12/06 00:25:08;;;;;;;;;;;;;;;-6.77;81.70;101558.22;4994797;28;19997;-64
2022/12/06 00:27:33;;;;;;;;;;;;;;;-6.74;82.27;101560.69;4996784;28;19968;-65
2022/12/06 00:29:58;;;;;;;;;;;;;;;-6.76;81.64;101558.16;4999510;28;19914;-67
2022/12/06 00:32:24;;;;;;;;;;;;;;;-6.76;81.50;101552.94;5000464;28;19924;-67
2022/12/06 00:34:49;;;;;;;;;;;;;;;-6.74;81.77;101560.69;4982513;28;19913;-63
2022/12/06 00:37:15;;;;;;;;;;;;;;;-6.75;81.47;101552.03;4996736;28;19926;-62
2022/12/06 00:39:41;;;;;;;;;;;;;;;-6.72;81.30;101551.91;4997363;28;19921;-61
2022/12/06 00:42:06;;;;;;;;;;;;;;;-6.67;81.59;101549.13;4999758;28;19937;-63
2022/12/06 00:44:34;;;;;;;;;;;;;;;-6.65;81.31;101542.97;4995285;28;19913;-63
2022/12/06 00:46:59;;;;;;;;;;;;;;;-6.63;81.02;101545.47;4994562;28;19922;-63
2022/12/06 00:49:25;;;;;;;;;;;;;;;-6.58;80.88;101537.50;4993420;28;19928;-64
2022/12/06 00:51:50;;;;;;;;;;;;;;;-6.57;81.13;101532.22;4995069;28;19914;-64
2022/12/06 00:54:16;;;;;;;;;;;;;;;-6.55;81.29;101532.16;4994310;28;20290;-66
2022/12/06 00:56:41;;;;;;;;;;;;;;;-6.51;81.71;101523.28;4994326;28;19921;-69
2022/12/06 00:59:06;;;;;;;;;;;;;;;-6.53;81.31;101523.34;4994260;28;19980;-69
2022/12/06 01:01:32;;;;;;;;;;;;;;;-6.52;81.29;101518.97;4994212;28;19921;-66
2022/12/06 01:03:59;;;;;;;;;;;;;;;-6.53;81.15;101510.28;4976870;28;19914;-65
2022/12/06 01:06:26;;;;;;;;;;;;;;;-6.50;81.84;101517.16;4994150;28;20048;-67
2022/12/06 01:08:56;;;;;;;;;;;;;;;-6.55;80.96;101517.34;4994669;28;20323;-68
2022/12/06 01:11:22;;;;;;;;;;;;;;;-6.60;81.00;101515.81;4993952;28;19921;-67
2022/12/06 01:13:47;;;;;;;;;;;;;;;-6.64;81.07;101507.22;4993964;28;19918;-67
2022/12/06 01:16:17;;;;;;;;;;;;;;;-6.66;81.81;101504.66;4994052;28;20004;-67
2022/12/06 01:18:43;;;;;;;;;;;;;;;-6.70;81.66;101505.69;4993977;28;19921;-67
2022/12/06 01:21:10;;;;;;;;;;;;;;;-6.73;82.36;101502.34;4994582;28;19917;-67
2022/12/06 01:23:35;;;;;;;;;;;;;;;-6.77;82.71;101499.00;4994762;28;20253;-66
2022/12/06 01:26:02;;;;;;;;;;;;;;;-6.80;82.69;101491.25;4993848;28;19914;-66
2022/12/06 01:28:27;;;;;;;;;;;;;;;-6.84;82.28;101484.47;4994236;28;19924;-67
2022/12/06 01:30:52;;;;;;;;;;;;;;;-6.92;80.89;101486.50;4994885;28;20008;-65
2022/12/06 01:33:18;;;;;;;;;;;;;;;-6.95;81.47;101482.22;4994659;28;20012;-66
2022/12/06 01:35:43;;;;;;;;;;;;;;;-6.89;81.90;101473.31;4993901;28;20425;-65
2022/12/06 01:38:09;;;;;;;;;;;;;;;-6.82;82.12;101475.66;4993348;28;20347;-64
2022/12/06 01:40:38;;;;;;;;;;;;;;;-6.81;81.74;101474.75;4993407;28;19914;-64
2022/12/06 01:43:04;;;;;;;;;;;;;;;-6.74;81.75;101474.50;4993916;28;19921;-64
2022/12/06 01:45:30;;;;;;;;;;;;;;;-6.65;82.40;101477.66;4993765;28;19997;-63
2022/12/06 01:47:55;;;;;;;;;;;;;;;-6.57;82.21;101481.72;4993740;28;19922;-64
2022/12/06 01:50:23;;;;;;;;;;;;;;;-6.52;81.56;101466.72;4994169;28;19914;-64
2022/12/06 01:52:56;;;;;;;;;;;;;;;-6.48;81.83;101469.16;4993261;28;19913;-65
2022/12/06 01:55:24;;;;;;;;;;;;;;;-6.46;81.14;101472.56;4998065;28;20274;-65
2022/12/06 01:57:50;;;;;;;;;;;;;;;-6.43;81.33;101459.34;4997288;28;19918;-66
2022/12/06 02:00:16;;;;;;;;;;;;;;;-6.39;81.14;101454.03;4997549;28;19918;-67
2022/12/06 02:02:41;;;;;;;;;;;;;;;-6.35;80.96;101458.22;4996912;28;20004;-67
2022/12/06 02:05:07;;;;;;;;;;;;;;;-6.30;81.07;101457.13;4997415;28;19918;-67
2022/12/06 02:07:32;;;;;;;;;;;;;;;-6.25;81.07;101449.94;4997009;28;19918;-67
2022/12/06 02:09:58;;;;;;;;;;;;;;;-6.22;80.89;101446.38;4996748;28;19920;-67
2022/12/06 02:12:23;;;;;;;;;;;;;;;-6.19;80.47;101440.16;4996915;28;19921;-66
2022/12/06 02:14:51;;;;;;;;;;;;;;;-6.17;80.72;101426.13;4997018;28;20332;-66
2022/12/06 02:17:27;;;;;;;;;;;;;;;-6.14;80.57;101427.78;4996962;28;19959;-65
2022/12/06 02:19:56;;;;;;;;;;;;;;;-6.11;80.76;101422.41;4997111;28;19937;-65
2022/12/06 02:22:22;;;;;;;;;;;;;;;-6.09;80.56;101418.81;4996689;28;19920;-64
2022/12/06 02:24:47;;;;;;;;;;;;;;;-6.06;80.87;101418.69;4996568;28;19913;-64
2022/12/06 02:27:15;;;;;;;;;;;;;;;-6.05;80.89;101414.31;4996239;28;19964;-64
2022/12/06 02:29:59;;;;;;;;;;;;;;;-6.06;80.96;101410.84;4996659;28;19914;-64
2022/12/06 02:32:33;;;;;;;;;;;;;;;-6.07;80.97;101406.53;4996074;28;19984;-64
2022/12/06 02:35:06;;;;;;;;;;;;;;;-6.08;80.52;101403.97;4996905;28;19964;-66
2022/12/06 02:37:34;;;;;;;;;;;;;;;-6.10;80.09;101406.66;4995925;28;20363;-65
2022/12/06 02:40:03;;;;;;;;;;;;;;;-6.10;79.93;101405.81;4996176;28;20294;-64
2022/12/06 02:42:33;;;;;;;;;;;;;;;-6.08;80.03;101398.75;4995963;28;19965;-64
2022/12/06 02:45:01;;;;;;;;;;;;;;;-6.06;80.31;101400.38;4996218;28;19914;-64
2022/12/06 02:47:31;;;;;;;;;;;;;;;-6.05;79.74;101399.47;4996036;28;19925;-64
2022/12/06 02:49:58;;;;;;;;;;;;;;;-6.05;79.84;101390.78;4996518;28;19924;-64
2022/12/06 02:52:25;;;;;;;;;;;;;;;-6.07;79.59;101400.47;4996498;28;20209;-65
2022/12/06 02:54:53;;;;;;;;;;;;;;;-6.08;80.08;101391.75;4996339;28;19920;-65
2022/12/06 02:57:22;;;;;;;;;;;;;;;-6.06;79.20;101391.69;4996125;28;19914;-65
2022/12/06 02:59:51;;;;;;;;;;;;;;;-6.06;79.17;101391.69;4996455;28;19929;-66
2022/12/06 03:02:17;;;;;;;;;;;;;;;-6.03;79.96;101389.78;4996100;28;19929;-67
2022/12/06 03:05:02;;;;;;;;;;;;;;;-5.99;80.39;101381.84;4995848;28;19913;-65
2022/12/06 03:07:37;;;;;;;;;;;;;;;-5.96;80.70;101381.69;4994973;28;19983;-63
2022/12/06 03:10:21;;;;;;;;;;;;;;;-5.94;80.43;101378.06;4996081;28;19953;-67
2022/12/06 03:12:46;;;;;;;;;;;;;;;-5.90;80.23;101368.34;4995134;28;19968;-65
2022/12/06 03:15:19;;;;;;;;;;;;;;;-5.88;79.33;101379.59;4996070;28;19952;-64
2022/12/06 03:17:58;;;;;;;;;;;;;;;-5.89;80.12;101376.13;4996369;28;19914;-65
2022/12/06 03:20:24;;;;;;;;;;;;;;;-5.87;80.54;101368.19;4995876;28;19960;-65
2022/12/06 03:22:52;;;;;;;;;;;;;;;-5.88;80.12;101358.66;4996668;28;19914;-66
2022/12/06 03:25:17;;;;;;;;;;;;;;;-5.86;80.55;101364.66;4996037;28;19979;-65
2022/12/06 03:27:44;;;;;;;;;;;;;;;-5.86;80.77;101351.59;4994832;28;20354;-65
2022/12/06 03:30:13;;;;;;;;;;;;;;;-5.86;80.07;101359.44;4995615;28;20051;-65
2022/12/06 03:32:40;;;;;;;;;;;;;;;-5.86;80.35;101357.66;4996119;28;20318;-64
2022/12/06 03:35:07;;;;;;;;;;;;;;;-5.81;81.07;101356.59;4995696;28;20016;-66
2022/12/06 03:37:35;;;;;;;;;;;;;;;-5.81;80.73;101359.22;4993915;28;19925;-65
2022/12/06 03:40:04;;;;;;;;;;;;;;;-5.77;81.24;101352.97;4995259;28;20334;-65
2022/12/06 03:42:33;;;;;;;;;;;;;;;-5.77;80.64;101360.81;4995471;28;20003;-65
2022/12/06 03:44:58;;;;;;;;;;;;;;;-5.79;79.95;101354.78;4994937;28;19913;-69
2022/12/06 03:47:32;;;;;;;;;;;;;;;-5.75;81.03;101346.75;4995515;28;19922;-66
2022/12/06 03:50:00;;;;;;;;;;;;;;;-5.71;81.26;101337.84;4994156;28;19914;-66
2022/12/06 03:52:27;;;;;;;;;;;;;;;-5.69;80.86;101345.63;4995515;28;19933;-66
2022/12/06 03:54:52;;;;;;;;;;;;;;;-5.64;81.41;101338.44;4995254;28;19914;-66
2022/12/06 03:57:18;;;;;;;;;;;;;;;-5.64;81.39;101334.03;4995379;28;20024;-66
2022/12/06 03:59:43;;;;;;;;;;;;;;;-5.60;81.04;101339.97;4995617;28;19913;-63
2022/12/06 04:02:08;;;;;;;;;;;;;;;-5.58;80.66;101332.06;4995155;28;20305;-64
2022/12/06 04:04:34;;;;;;;;;;;;;;;-5.61;79.98;101340.03;4993879;28;19914;-64
2022/12/06 04:06:59;;;;;;;;;;;;;;;-5.67;78.95;101336.78;4994807;28;20374;-66
2022/12/06 04:12:59;;;;;;;;;;;;;;;-5.60;80.24;101333.91;4994875;28;19914;-66
2022/12/06 04:14:53;;;;;;;;;;;;;;;-5.59;79.07;101317.28;4994635;28;20008;-64
2022/12/06 04:20:02;;;;;;;;;;;;;;;-5.56;79.67;101314.53;4995127;28;20407;-65
2022/12/06 04:25:11;;;;;;;;;;;;;;;-5.53;79.68;101317.03;4995391;28;19914;-64
2022/12/06 04:38:43;;;;;;;;;;;;;;;-5.48;79.41;101307.16;4994462;28;19922;-64
2022/12/06 04:44:02;;;;;;;;;;;;;;;-5.53;79.44;101296.09;4984310;28;19968;-64
2022/12/06 04:46:28;;;;;;;;;;;;;;;-5.58;78.79;101298.91;4994610;28;19960;-64
2022/12/06 04:48:53;;;;;;;;;;;;;;;-5.64;79.21;101292.19;4994282;28;19979;-65
2022/12/06 04:51:19;;;;;;;;;;;;;;;-5.68;78.99;101292.41;4994383;28;19920;-64
2022/12/06 04:53:45;;;;;;;;;;;;;;;-5.74;78.88;101300.50;4994375;28;20001;-64
2022/12/06 04:56:10;;;;;;;;;;;;;;;-5.78;79.20;101294.56;4994384;28;19920;-64
2022/12/06 04:58:36;;;;;;;;;;;;;;;-5.85;79.79;101296.59;4994175;28;19917;-64
2022/12/06 05:01:01;;;;;;;;;;;;;;;-5.95;79.17;101286.66;4994536;28;20012;-65
2022/12/06 05:03:26;;;;;;;;;;;;;;;-6.01;79.27;101287.75;4994732;28;19920;-64
2022/12/06 05:05:51;;;;;;;;;;;;;;;-6.05;79.67;101278.38;4994388;28;19921;-64
2022/12/06 05:08:17;;;;;;;;;;;;;;;-6.08;79.87;101281.94;4993818;28;19918;-64
2022/12/06 05:10:45;;;;;;;;;;;;;;;-6.12;79.87;101277.75;4994483;28;19914;-64
2022/12/06 05:13:10;;;;;;;;;;;;;;;-6.16;80.19;101276.22;4994460;28;20317;-64
2022/12/06 05:15:36;;;;;;;;;;;;;;;-6.18;79.81;101280.66;4993902;28;19914;-64
2022/12/06 05:18:01;;;;;;;;;;;;;;;-6.20;80.00;101276.38;4993257;28;19913;-63
2022/12/06 05:20:26;;;;;;;;;;;;;;;-6.25;79.62;101272.22;4994388;28;19937;-64
2022/12/06 05:22:51;;;;;;;;;;;;;;;-6.28;80.13;101271.50;4994005;28;19944;-64
2022/12/06 05:25:17;;;;;;;;;;;;;;;-6.29;80.46;101261.97;4994211;28;19917;-64
2022/12/06 05:27:43;;;;;;;;;;;;;;;-6.29;80.68;101262.81;4994350;28;20028;-64
2022/12/06 05:30:09;;;;;;;;;;;;;;;-6.30;80.96;101249.81;4998194;28;20385;-64
2022/12/06 05:32:34;;;;;;;;;;;;;;;-6.34;81.07;101258.69;4997914;28;20012;-63
2022/12/06 05:34:59;;;;;;;;;;;;;;;-6.40;81.03;101265.03;4998107;28;20374;-64
2022/12/06 05:37:25;;;;;;;;;;;;;;;-6.49;80.91;101266.25;4998121;28;19982;-64
2022/12/06 05:39:50;;;;;;;;;;;;;;;-6.56;81.16;101262.19;4996577;28;19914;-64
2022/12/06 05:42:15;;;;;;;;;;;;;;;-6.59;81.25;101266.69;4997366;28;20366;-64
2022/12/06 05:44:40;;;;;;;;;;;;;;;-6.60;81.76;101265.88;4997610;28;19914;-64
2022/12/06 05:47:06;;;;;;;;;;;;;;;-6.60;81.88;101265.03;4997602;28;19917;-64
2022/12/06 05:49:31;;;;;;;;;;;;;;;-6.60;81.31;101267.63;4997538;28;19949;-64
2022/12/06 05:51:56;;;;;;;;;;;;;;;-6.69;80.89;101261.84;4997465;28;20270;-64
2022/12/06 05:54:22;;;;;;;;;;;;;;;-6.75;81.12;101256.91;4997254;28;19917;-65
2022/12/06 05:56:50;;;;;;;;;;;;;;;-6.81;81.35;101260.63;4996164;28;20024;-64
2022/12/06 05:59:16;;;;;;;;;;;;;;;-6.87;81.40;101252.16;4996013;28;19949;-66
2022/12/06 06:01:41;;;;;;;;;;;;;;;-6.95;81.49;101249.88;4997460;28;20011;-64
2022/12/06 06:04:07;;;;;;;;;;;;;;;-6.96;81.75;101245.56;4997699;28;19921;-65
2022/12/06 06:06:32;;;;;;;;;;;;;;;-6.93;81.92;101242.81;4997528;28;20392;-64
2022/12/06 06:08:57;;;;;;;;;;;;;;;-6.92;82.05;101234.09;4997123;28;19914;-64
2022/12/06 06:11:23;;;;;;;;;;;;;;;-6.89;82.55;101239.19;4997037;28;19914;-64
2022/12/06 06:13:48;;;;;;;;;;;;;;;-6.93;82.18;101250.66;4997350;28;19914;-64
2022/12/06 06:16:13;;;;;;;;;;;;;;;-7.00;81.97;101244.00;4996832;28;19914;-64
2022/12/06 06:18:38;;;;;;;;;;;;;;;-7.08;81.91;101246.06;4995658;28;19922;-65
2022/12/06 06:21:04;;;;;;;;;;;;;;;-7.03;83.03;101249.34;4997087;28;19937;-65
2022/12/06 06:23:29;;;;;;;;;;;;;;;-7.08;82.66;101239.06;4997289;28;20327;-64
2022/12/06 06:25:55;;;;;;;;;;;;;;;-7.09;82.98;101247.00;4996712;28;20263;-64
2022/12/06 06:28:21;;;;;;;;;;;;;;;-7.06;83.55;101252.91;4997090;28;19971;-64
2022/12/06 06:30:46;;;;;;;;;;;;;;;-7.04;83.36;101240.66;4997567;28;19918;-64
2022/12/06 06:33:12;;;;;;;;;;;;;;;-7.01;83.13;101242.28;4997158;28;19920;-64
2022/12/06 06:35:37;;;;;;;;;;;;;;;-6.95;83.54;101247.25;4996989;28;19921;-64
2022/12/06 06:38:02;;;;;;;;;;;;;;;-6.93;82.82;101240.22;4995644;28;19960;-64
2022/12/06 06:40:28;;;;;;;;;;;;;;;-6.98;83.18;101239.56;4997544;28;20350;-64
2022/12/06 06:42:53;;;;;;;;;;;;;;;-6.98;83.23;101238.69;5000357;28;20273;-64
2022/12/06 06:45:19;;;;;;;;;;;;;;;-7.01;84.04;101235.31;5003086;28;20020;-64
2022/12/06 06:47:44;;;;;;;;;;;;;;;-6.98;83.67;101234.34;5000697;28;19918;-64
2022/12/06 06:50:09;;;;;;;;;;;;;;;-7.01;83.35;101227.47;5009016;28;19913;-64
2022/12/06 06:52:36;;;;;;;;;;;;;;;-7.06;83.42;101225.97;5003738;28;19999;-64
2022/12/06 06:55:01;;;;;;;;;;;;;;;-7.12;83.73;101223.59;4995354;28;20373;-64
2022/12/06 06:57:26;;;;;;;;;;;;;;;-7.24;83.47;101223.19;4996504;28;19921;-64
2022/12/06 06:59:51;;;;;;;;;;;;;;;-7.33;83.80;101223.56;4995011;28;19914;-64
2022/12/06 07:02:18;;;;;;;;;;;;;;;-7.33;83.99;101220.94;4996438;28;20281;-64
2022/12/06 07:04:43;;;;;;;;;;;;;;;-7.38;84.26;101211.59;4996414;28;19961;-64
2022/12/06 07:07:10;;;;;;;;;;;;;;;-7.44;84.36;101213.53;4996706;28;20000;-65
2022/12/06 07:09:35;;;;;;;;;;;;;;;-7.49;84.33;101214.63;4996206;28;20023;-65
2022/12/06 07:12:00;;;;;;;;;;;;;;;-7.55;84.75;101204.44;4994637;28;19914;-64
2022/12/06 07:14:25;;;;;;;;;;;;;;;-7.63;84.50;101213.41;4994319;28;19918;-64
2022/12/06 07:16:51;;;;;;;;;;;;;;;-7.57;84.94;101217.53;4995654;28;20047;-64
2022/12/06 07:19:16;;;;;;;;;;;;;;;-7.63;84.56;101218.63;4995609;28;19914;-64
2022/12/06 07:21:41;;;;;;;;;;;;;;;-7.66;85.10;101217.88;4995297;28;20374;-64
2022/12/06 07:24:08;;;;;;;;;;;;;;;-7.73;84.98;101216.41;4994037;28;20334;-64
2022/12/06 07:26:33;;;;;;;;;;;;;;;-7.72;85.50;101218.13;4995197;28;19920;-64
2022/12/06 07:29:03;;;;;;;;;;;;;;;-7.72;85.69;101218.97;4996121;28;19914;-64
2022/12/06 07:31:29;;;;;;;;;;;;;;;-7.73;85.74;101219.84;4995906;28;19913;-65
2022/12/06 07:33:58;;;;;;;;;;;;;;;-7.77;86.00;101215.66;4995448;28;19921;-64
2022/12/06 07:36:25;;;;;;;;;;;;;;;-7.83;85.78;101219.34;4995174;28;20401;-64
2022/12/06 07:38:54;;;;;;;;;;;;;;;-7.91;85.93;101213.59;4995284;28;19920;-64
2022/12/06 07:46:54;;;;;;;;;;;;;;;-7.97;86.29;101203.38;4995219;28;19918;-64
2022/12/06 07:49:19;;;;;;;;;;;;;;;-7.95;86.12;101203.31;4994953;28;19985;-64
2022/12/06 07:51:45;;;;;;;;;;;;;;;-7.98;86.32;101199.94;4995211;28;19941;-65
2022/12/06 07:54:10;;;;;;;;;;;;;;;-7.99;85.94;101205.19;4995199;28;19913;-65
2022/12/06 07:56:36;;;;;;;;;;;;;;;-7.95;86.75;101200.72;4995069;28;19979;-66
2022/12/06 07:59:01;;;;;;;;;;;;;;;-7.92;86.74;101203.22;4994996;28;19914;-66
2022/12/06 08:01:26;;;;;;;;;;;;;;;-7.98;86.51;101194.72;4993961;28;19985;-66
2022/12/06 08:03:54;;;;;;;;;;;;;;;-8.03;86.61;101211.44;4995183;28;19920;-66
2022/12/06 08:06:19;;;;;;;;;;;;;;;-8.07;86.58;101208.09;4995505;28;19988;-66
2022/12/06 08:08:45;;;;;;;;;;;;;;;-8.10;86.40;101208.19;4995100;28;20434;-66
2022/12/06 08:11:10;;;;;;;;;;;;;;;-8.11;86.61;101209.09;4994836;28;19961;-66
2022/12/06 08:13:36;;;;;;;;;;;;;;;-8.06;86.83;101198.50;4994447;28;20305;-66
2022/12/06 08:16:06;;;;;;;;;;;;;;;-8.07;86.87;101207.25;4995114;28;19914;-66
2022/12/06 08:18:31;;;;;;;;;;;;;;;-8.08;87.00;101202.91;4994523;28;19913;-66
2022/12/06 08:20:57;;;;;;;;;;;;;;;-8.05;87.02;101190.63;4994987;28;20364;-66
2022/12/06 08:23:22;;;;;;;;;;;;;;;-8.05;87.20;101195.84;4994867;28;20285;-67
2022/12/06 08:25:55;;;;;;;;;;;;;;;-8.04;87.12;101192.34;4994635;28;20370;-66
2022/12/06 08:28:20;;;;;;;;;;;;;;;-8.05;87.20;101190.63;4993175;28;19918;-65
2022/12/06 08:30:45;;;;;;;;;;;;;;;-8.05;87.17;101184.56;4993571;28;19918;-66
2022/12/06 08:33:11;;;;;;;;;;;;;;;-8.03;87.32;101182.75;4994654;28;20057;-66
2022/12/06 08:35:36;;;;;;;;;;;;;;;-8.02;87.38;101185.31;4994690;28;19960;-65
2022/12/06 08:38:01;;;;;;;;;;;;;;;-7.95;87.37;101179.88;4994247;28;19921;-66
2022/12/06 08:40:27;;;;;;;;;;;;;;;-7.91;87.52;101178.84;4994551;28;19929;-65
2022/12/06 08:42:54;;;;;;;;;;;;;;;-7.90;87.35;101178.78;4993367;28;20414;-66
2022/12/06 08:45:19;;;;;;;;;;;;;;;-7.87;87.52;101172.63;4994948;28;20096;-65
2022/12/06 08:47:44;;;;;;;;;;;;;;;-7.80;87.32;101174.94;4994397;28;20386;-65
2022/12/06 08:50:10;;;;;;;;;;;;;;;-7.70;87.31;101167.59;4993379;28;19967;-65
2022/12/06 08:52:35;;;;;;;;;;;;;;;-7.68;87.34;101176.22;4994584;28;19917;-67
2022/12/06 08:55:01;;;;;;;;;;;;;;;-7.67;87.37;101169.22;4994354;28;19914;-65
2022/12/06 08:57:26;;;;;;;;;;;;;;;-7.66;87.04;101170.94;4994012;28;20012;-65
2022/12/06 08:59:51;;;;;;;;;;;;;;;-7.63;87.14;101161.25;4994300;28;19918;-66
2022/12/06 09:02:16;;;;;;;;;;;;;;;-7.57;87.32;101156.69;4994549;28;19914;-66
2022/12/06 09:04:41;;;;;;;;;;;;;;;-7.49;87.47;101163.28;4998096;28;19914;-66
2022/12/06 09:07:07;;;;;;;;;;;;;;;-7.45;87.34;101153.59;4998174;28;19945;-66
2022/12/06 09:09:33;;;;;;;;;;;;;;;-7.42;87.13;101158.69;4998187;28;19956;-66
2022/12/06 09:11:58;;;;;;;;;;;;;;;-7.37;87.31;101155.88;4998122;28;19971;-66
2022/12/06 09:14:23;;;;;;;;;;;;;;;-7.34;87.11;101155.78;4998196;28;19914;-66
2022/12/06 09:16:50;;;;;;;;;;;;;;;-7.27;87.23;101158.06;4998585;28;20362;-65
2022/12/06 09:19:15;;;;;;;;;;;;;;;-7.27;86.74;101149.41;4997878;28;19914;-65
2022/12/06 09:21:41;;;;;;;;;;;;;;;-7.26;86.84;101149.34;4997916;28;19914;-65
2022/12/06 09:24:11;;;;;;;;;;;;;;;-7.23;87.02;101149.19;4998269;28;19921;-65
2022/12/06 09:26:36;;;;;;;;;;;;;;;-7.17;86.78;101147.25;4997485;28;19914;-65
2022/12/06 09:29:02;;;;;;;;;;;;;;;-7.09;86.86;101158.25;4998200;28;19914;-65
2022/12/06 09:31:27;;;;;;;;;;;;;;;-6.95;86.89;101155.03;4998122;28;20390;-65
2022/12/06 09:33:53;;;;;;;;;;;;;;;-6.90;86.40;101151.31;4998130;28;19914;-65
2022/12/06 09:36:22;;;;;;;;;;;;;;;-6.87;86.22;101148.59;4997382;28;19976;-65
2022/12/06 09:38:50;;;;;;;;;;;;;;;-6.81;85.98;101156.16;4997399;28;19961;-65
2022/12/06 09:41:22;;;;;;;;;;;;;;;-6.77;86.20;101156.88;4996357;28;19961;-65
2022/12/06 09:44:11;;;;;;;;;;;;;;;-6.73;86.25;101148.00;4996272;28;19918;-65
2022/12/06 09:46:48;;;;;;;;;;;;;;;-6.69;86.10;101143.50;4998712;28;19946;-65
2022/12/06 09:49:26;;;;;;;;;;;;;;;-6.66;85.77;101141.59;4997868;28;19918;-65
2022/12/06 09:52:15;;;;;;;;;;;;;;;-6.60;85.87;101139.63;4997726;28;19914;-65
2022/12/06 09:54:54;;;;;;;;;;;;;;;-6.53;85.94;101130.63;4996836;28;20370;-64
2022/12/06 09:57:40;;;;;;;;;;;;;;;-6.45;85.86;101126.72;4996863;28;19929;-65
2022/12/06 10:00:05;;;;;;;;;;;;;;;-6.31;86.14;101127.91;4997442;28;19914;-65
2022/12/06 10:02:46;;;;;;;;;;;;;;;-6.19;85.76;101127.31;4997230;28;19914;-65
2022/12/06 10:05:20;;;;;;;;;;;;;;;-6.10;85.61;101120.84;4997210;28;19914;-65
2022/12/06 10:08:02;;;;;;;;;;;;;;;-6.05;85.51;101122.31;4997011;28;19918;-66
2022/12/06 10:10:39;;;;;;;;;;;;;;;-5.99;85.26;101122.97;4997425;28;19920;-65
2022/12/06 10:13:11;;;;;;;;;;;;;;;-5.90;85.47;101125.13;4996995;28;19914;-65
2022/12/06 10:15:49;;;;;;;;;;;;;;;-5.75;85.29;101118.31;4996836;28;19965;-65
2022/12/06 10:18:32;;;;;;;;;;;;;;;-5.61;84.66;101118.50;4997074;28;19976;-66
2022/12/06 10:21:16;;;;;;;;;;;;;;;-5.47;84.74;101108.22;4996813;28;19913;-66
2022/12/06 10:23:44;;;;;;;;;;;;;;;-5.34;84.12;101115.47;4995455;28;19914;-66
2022/12/06 10:26:14;;;;;;;;;;;;;;;-5.21;83.95;101111.31;4997069;28;19949;-65
2022/12/06 10:28:48;;;;;;;;;;;;;;;-5.08;83.78;101109.78;4996585;28;19918;-65
2022/12/06 10:31:25;;;;;;;;;;;;;;;-4.93;83.64;101107.31;4995415;28;19914;-65
2022/12/06 10:33:54;;;;;;;;;;;;;;;-4.86;82.59;101095.59;4997054;28;19921;-65
2022/12/06 10:36:25;;;;;;;;;;;;;;;-4.81;82.31;101104.09;4995021;28;20286;-65
2022/12/06 10:38:54;;;;;;;;;;;;;;;-4.73;82.26;101093.19;4996689;28;20299;-65
2022/12/06 10:41:29;;;;;;;;;;;;;;;-4.69;82.37;101081.63;4995624;28;19917;-65
2022/12/06 10:44:13;;;;;;;;;;;;;;;-4.60;82.17;101085.53;4996866;28;19921;-65
2022/12/06 10:47:11;;;;;;;;;;;;;;;-4.45;81.45;101081.28;4995759;28;19980;-65
2022/12/06 10:49:37;;;;;;;;;;;;;;;-4.39;81.48;101088.78;4995023;28;19914;-66
2022/12/06 10:52:21;;;;;;;;;;;;;;;-4.32;81.55;101083.13;4996561;28;19913;-65
2022/12/06 10:54:56;;;;;;;;;;;;;;;-4.22;81.25;101080.00;4996656;28;20008;-65
2022/12/06 10:57:26;;;;;;;;;;;;;;;-4.08;80.70;101074.88;4978966;28;19914;-66
2022/12/06 11:00:01;;;;;;;;;;;;;;;-3.91;80.81;101074.78;4995195;28;19937;-65
2022/12/06 11:02:31;;;;;;;;;;;;;;;-3.76;80.07;101069.59;4996241;28;20393;-65
2022/12/06 11:05:00;;;;;;;;;;;;;;;-3.63;80.21;101059.25;4995074;28;20602;-65
2022/12/06 11:07:30;;;;;;;;;;;;;;;-3.42;79.37;101055.38;4994746;28;19917;-65
2022/12/06 11:09:56;;;;;;;;;;;;;;;-3.20;78.56;101054.13;4996206;28;19914;-66
2022/12/06 11:12:30;;;;;;;;;;;;;;;-2.96;78.22;101054.47;4996104;28;19921;-66
2022/12/06 11:15:12;;;;;;;;;;;;;;;-2.83;75.71;101044.91;4996240;28;20266;-65
2022/12/06 11:17:42;;;;;;;;;;;;;;;-2.78;75.71;101032.34;4995728;28;19921;-65
2022/12/06 11:20:22;;;;;;;;;;;;;;;-2.64;75.56;101030.63;4995665;28;20266;-66
2022/12/06 11:22:58;;;;;;;;;;;;;;;-2.49;75.31;101036.72;4996269;28;19936;-66
2022/12/06 11:25:29;;;;;;;;;;;;;;;-2.44;75.03;101027.63;4994890;28;20323;-66
2022/12/06 11:28:20;;;;;;;;;;;;;;;-2.51;75.41;101028.09;4995809;28;19924;-66
2022/12/06 11:30:45;;;;;;;;;;;;;;;-2.62;75.89;101018.25;4995794;28;19914;-66
2022/12/06 11:33:10;;;;;;;;;;;;;;;-2.64;75.40;101014.88;4995587;28;20001;-66
2022/12/06 11:35:35;;;;;;;;;;;;;;;-2.60;75.16;101022.47;4995494;28;19917;-66
2022/12/06 11:38:03;;;;;;;;;;;;;;;-2.45;75.79;101020.69;4995486;28;19922;-66
2022/12/06 11:40:35;;;;;;;;;;;;;;;-2.26;75.80;101015.09;4995580;28;20346;-66
2022/12/06 11:43:04;;;;;;;;;;;;;;;-2.08;75.83;101015.72;4995410;28;19917;-66
2022/12/06 11:45:33;;;;;;;;;;;;;;;-1.91;75.93;101009.38;4995208;28;19925;-66
2022/12/06 11:48:01;;;;;;;;;;;;;;;-1.80;75.79;101013.91;4995369;28;19922;-66
2022/12/06 11:50:30;;;;;;;;;;;;;;;-1.76;75.45;101015.41;4995323;28;20017;-66
2022/12/06 11:53:01;;;;;;;;;;;;;;;-1.80;75.42;101008.66;4994918;28;19914;-66
2022/12/06 11:55:38;;;;;;;;;;;;;;;-1.97;75.16;101013.25;4995210;28;20370;-66
2022/12/06 11:58:10;;;;;;;;;;;;;;;-2.09;74.79;101002.66;4994136;28;20338;-66
2022/12/06 12:00:36;;;;;;;;;;;;;;;-2.21;76.31;101007.78;4995160;28;19920;-66
2022/12/06 12:03:01;;;;;;;;;;;;;;;-2.34;76.28;101007.69;4995028;28;20004;-66
2022/12/06 12:05:33;;;;;;;;;;;;;;;-2.45;76.82;101004.91;4995036;28;19918;-66
2022/12/06 12:08:06;;;;;;;;;;;;;;;-2.54;77.90;101000.22;4995031;28;20016;-66
2022/12/06 12:10:42;;;;;;;;;;;;;;;-2.60;77.79;100985.69;4995410;28;19921;-66
2022/12/06 12:15:56;;;;;;;;;;;;;;;-2.57;77.21;100989.88;4995140;28;19918;-66
2022/12/06 12:18:33;;;;;;;;;;;;;;;-2.50;77.75;100980.69;4995046;28;19913;-66
2022/12/06 12:20:59;;;;;;;;;;;;;;;-2.40;77.31;100983.56;4995275;28;19921;-66
2022/12/06 12:23:26;;;;;;;;;;;;;;;-2.35;77.51;100984.13;4996139;28;19914;-66
2022/12/06 12:25:59;;;;;;;;;;;;;;;-2.30;77.11;100983.81;4995826;28;19913;-66
2022/12/06 12:28:25;;;;;;;;;;;;;;;-2.28;77.10;100977.53;4995503;28;20381;-66
2022/12/06 12:30:52;;;;;;;;;;;;;;;-2.30;77.71;100970.66;4995709;28;19944;-66
2022/12/06 12:33:18;;;;;;;;;;;;;;;-2.35;77.97;100971.81;4995757;28;19920;-65
2022/12/06 12:35:52;;;;;;;;;;;;;;;-2.34;78.86;100970.88;4994458;28;19917;-66
2022/12/06 12:38:31;;;;;;;;;;;;;;;-2.35;78.21;100961.28;4993395;28;19933;-66
2022/12/06 12:41:02;;;;;;;;;;;;;;;-2.37;78.68;100957.06;4994252;28;19925;-66
2022/12/06 12:43:32;;;;;;;;;;;;;;;-2.41;79.09;100958.22;4994482;28;19913;-66
2022/12/06 12:46:09;;;;;;;;;;;;;;;-2.44;78.16;100961.03;4994572;28;19926;-67
2022/12/06 12:48:39;;;;;;;;;;;;;;;-2.44;79.12;100953.97;4994470;28;19918;-67
2022/12/06 12:51:06;;;;;;;;;;;;;;;-2.44;78.52;100947.88;4994617;28;19961;-67
2022/12/06 12:53:39;;;;;;;;;;;;;;;-2.46;79.59;100941.88;4994140;28;19984;-67
2022/12/06 12:56:09;;;;;;;;;;;;;;;-2.51;79.79;100946.59;4995202;28;19968;-67
2022/12/06 12:58:34;;;;;;;;;;;;;;;-2.58;80.04;100944.34;4994404;28;19914;-66
2022/12/06 13:01:22;;;;;;;;;;;;;;;-2.66;79.67;100948.41;4993986;28;19914;-67
2022/12/06 13:03:49;;;;;;;;;;;;;;;-2.73;80.02;100951.41;4994135;28;19914;-67
2022/12/06 13:06:25;;;;;;;;;;;;;;;-2.80;78.17;100946.66;4994464;28;20300;-66
2022/12/06 13:08:51;;;;;;;;;;;;;;;-2.84;77.89;100950.38;4994323;28;19921;-66
2022/12/06 13:11:16;;;;;;;;;;;;;;;-2.88;77.66;100927.88;4994236;28;19967;-66